Terminal Aerodrome Forecast
Issued by NWS

Home | Current Version | Previous Version | Text Only | Print | Product List | Glossary On
Versions: 1 2 3 4 5 6 7 8 9 10 11 12 13 14 15 16 17 18 19 20 21 22 23 24 25 26 27 28 29 30 31 32 33
000
FTUS44 KLZK 081133
TAFADF
TAF
KADF 081133Z 0812/0912 36009KT P6SM SCT010 OVC050
     FM081400 35009KT P6SM BKN050 OVC250
     FM081600 34008G15KT P6SM SCT050 BKN250
     FM090000 33005KT P6SM BKN250=

USA.gov is the U.S. government's official web portal to all federal, state and local government web resources and services.